createdAt,value
2023-02-06T00:01:36.709Z,18.40
2023-02-06T00:04:04.363Z,20.57
2023-02-06T00:06:31.769Z,18.90
2023-02-06T00:08:59.068Z,14.53
2023-02-06T00:11:26.577Z,45.37
2023-02-06T00:13:53.746Z,20.57
2023-02-06T00:16:20.747Z,20.30
2023-02-06T00:18:48.505Z,28.67
2023-02-06T00:21:15.929Z,20.13
2023-02-06T00:23:43.145Z,76.77
2023-02-06T00:26:10.086Z,31.27
2023-02-06T00:28:37.290Z,17.40
2023-02-06T00:31:08.809Z,19.80
2023-02-06T00:33:36.625Z,15.20
2023-02-06T00:36:04.251Z,20.80
2023-02-06T00:38:31.792Z,16.63
2023-02-06T00:40:58.837Z,26.80
2023-02-06T00:43:26.137Z,25.20
2023-02-06T00:45:57.545Z,26.83
2023-02-06T00:48:25.677Z,16.73
2023-02-06T00:50:53.620Z,27.57
2023-02-06T00:53:21.843Z,27.52
2023-02-06T00:55:48.907Z,22.02
2023-02-06T00:58:16.206Z,13.67
2023-02-06T01:00:43.201Z,66.47
2023-02-06T01:03:10.772Z,21.80
2023-02-06T01:05:37.952Z,15.40
2023-02-06T01:08:05.350Z,14.73
2023-02-06T01:10:32.579Z,27.30
2023-02-06T01:13:00.179Z,15.37
2023-02-06T01:15:27.208Z,76.07
2023-02-06T01:17:54.434Z,19.97
2023-02-06T01:20:23.044Z,15.90
2023-02-06T01:25:17.179Z,14.60
2023-02-06T01:27:44.856Z,15.43
2023-02-06T01:30:12.502Z,13.23
2023-02-06T01:32:41.700Z,14.23
2023-02-06T01:37:40.187Z,14.70
2023-02-06T01:40:10.175Z,14.03
2023-02-06T01:42:38.408Z,16.17
2023-02-06T01:45:24.085Z,11.65
2023-02-06T01:47:58.008Z,13.33
2023-02-06T01:50:24.985Z,15.53
2023-02-06T01:52:52.607Z,13.40
2023-02-06T01:55:19.794Z,19.53
2023-02-06T01:57:47.153Z,16.13
2023-02-06T02:00:14.214Z,15.40
2023-02-06T02:02:45.146Z,15.57
2023-02-06T02:05:12.927Z,15.77
2023-02-06T02:07:50.128Z,14.13
2023-02-06T02:10:17.462Z,15.43
2023-02-06T02:12:44.667Z,15.63
2023-02-06T02:15:11.697Z,14.43
2023-02-06T02:17:47.050Z,16.00
2023-02-06T02:20:35.728Z,14.47
2023-02-06T02:23:16.976Z,14.87
2023-02-06T02:26:08.919Z,15.23
2023-02-06T02:28:54.621Z,14.83
2023-02-06T02:31:33.764Z,15.10
2023-02-06T02:34:31.950Z,14.60
2023-02-06T02:37:17.736Z,14.73
2023-02-06T02:39:53.786Z,13.37
2023-02-06T02:42:27.990Z,15.30
2023-02-06T02:45:00.160Z,15.17
2023-02-06T02:47:32.076Z,14.87
2023-02-06T02:50:03.081Z,15.00
2023-02-06T02:52:29.985Z,15.10
2023-02-06T02:54:57.152Z,15.27
2023-02-06T02:57:29.836Z,15.13
2023-02-06T02:59:59.832Z,14.57
2023-02-06T03:02:40.958Z,15.23
2023-02-06T03:05:11.617Z,13.83
2023-02-06T03:08:22.069Z,14.27
2023-02-06T03:10:56.309Z,15.27
2023-02-06T03:13:27.315Z,13.97
2023-02-06T03:16:16.730Z,13.87
2023-02-06T03:18:50.996Z,13.70
2023-02-06T03:21:20.979Z,14.33
2023-02-06T03:23:52.764Z,13.47
2023-02-06T03:26:23.847Z,14.30
2023-02-06T03:28:55.890Z,13.80
2023-02-06T03:31:39.081Z,14.83
2023-02-06T03:34:13.485Z,14.43
2023-02-06T03:36:41.183Z,14.30
2023-02-06T03:39:08.214Z,13.70
2023-02-06T03:41:37.906Z,14.27
2023-02-06T03:44:09.430Z,13.37
2023-02-06T03:46:39.923Z,14.10
2023-02-06T03:49:11.819Z,14.70
2023-02-06T03:52:14.015Z,13.33
2023-02-06T03:54:46.078Z,14.90
2023-02-06T03:57:19.414Z,14.27
2023-02-06T03:59:47.402Z,14.27
2023-02-06T04:02:16.970Z,14.50
2023-02-06T04:04:45.566Z,14.17
2023-02-06T04:09:42.764Z,13.10
2023-02-06T04:12:10.217Z,13.77
2023-02-06T04:14:37.498Z,14.03
2023-02-06T04:17:05.721Z,14.13
2023-02-06T04:19:33.457Z,14.83
2023-02-06T04:22:01.168Z,13.20
2023-02-06T04:24:29.924Z,14.87
2023-02-06T04:26:58.544Z,14.00
2023-02-06T04:29:25.680Z,13.77
2023-02-06T04:31:52.953Z,13.73
2023-02-06T04:34:19.897Z,13.70
2023-02-06T04:36:46.812Z,13.73
2023-02-06T04:39:13.942Z,13.20
2023-02-06T04:41:40.810Z,13.03
2023-02-06T04:44:07.990Z,12.63
2023-02-06T04:46:34.920Z,12.53
2023-02-06T04:49:02.282Z,13.50
2023-02-06T04:51:29.197Z,14.53
2023-02-06T04:53:56.445Z,12.63
2023-02-06T04:56:25.599Z,12.63
2023-02-06T04:58:52.952Z,13.37
2023-02-06T05:01:20.534Z,12.57
2023-02-06T05:03:48.376Z,14.33
2023-02-06T05:06:15.816Z,13.30
2023-02-06T05:08:43.504Z,13.80
2023-02-06T05:11:10.428Z,12.77
2023-02-06T05:13:37.718Z,13.80
2023-02-06T05:16:06.883Z,13.47
2023-02-06T05:18:34.550Z,14.63
2023-02-06T05:21:01.683Z,13.67
2023-02-06T05:23:28.952Z,15.07
2023-02-06T05:25:55.979Z,15.67
2023-02-06T05:28:23.138Z,15.03
2023-02-06T05:30:50.262Z,14.67
2023-02-06T05:33:19.012Z,15.17
2023-02-06T05:35:46.183Z,14.43
2023-02-06T05:38:13.411Z,14.57
2023-02-06T05:40:40.341Z,12.90
2023-02-06T05:43:08.564Z,13.67
2023-02-06T05:45:36.202Z,13.77
2023-02-06T05:48:03.661Z,16.50
2023-02-06T05:50:30.545Z,18.67
2023-02-06T05:52:57.792Z,17.20
2023-02-06T05:55:25.125Z,27.43
2023-02-06T05:57:52.322Z,33.00
2023-02-06T06:00:19.431Z,32.50
2023-02-06T06:02:46.755Z,27.00
2023-02-06T06:05:13.648Z,21.70
2023-02-06T06:07:41.082Z,21.43
2023-02-06T06:10:08.416Z,13.27
2023-02-06T06:12:35.707Z,15.50
2023-02-06T06:15:02.596Z,19.53
2023-02-06T06:17:29.809Z,20.80
2023-02-06T06:19:56.698Z,23.07
2023-02-06T06:22:23.882Z,24.13
2023-02-06T06:24:51.071Z,25.90
2023-02-06T06:27:18.329Z,21.40
2023-02-06T06:29:45.250Z,18.47
2023-02-06T06:32:12.677Z,16.50
2023-02-06T06:34:39.674Z,16.33
2023-02-06T06:37:06.936Z,76.67
2023-02-06T06:39:33.827Z,18.10
2023-02-06T06:42:01.031Z,23.17
2023-02-06T06:44:28.015Z,18.33
2023-02-06T06:46:55.238Z,59.00
2023-02-06T06:49:22.201Z,21.67
2023-02-06T06:51:49.389Z,20.63
2023-02-06T06:54:16.435Z,36.33
2023-02-06T06:56:43.708Z,21.67
2023-02-06T06:59:10.568Z,16.23
2023-02-06T07:01:37.756Z,19.47
2023-02-06T07:04:04.881Z,17.53
2023-02-06T07:06:32.166Z,46.33
2023-02-06T07:08:59.062Z,72.43
2023-02-06T07:11:26.921Z,54.53
2023-02-06T07:13:53.841Z,29.20
2023-02-06T07:16:21.041Z,21.23
2023-02-06T07:18:47.973Z,16.17
2023-02-06T07:21:16.059Z,14.70
2023-02-06T07:23:42.968Z,18.13
2023-02-06T07:26:10.178Z,17.63
2023-02-06T07:28:37.095Z,17.27
2023-02-06T07:31:06.726Z,31.47
2023-02-06T07:33:34.910Z,24.33
2023-02-06T07:36:04.033Z,19.73
2023-02-06T07:41:02.845Z,19.27
2023-02-06T07:43:30.431Z,21.43
2023-02-06T07:46:02.096Z,16.47
2023-02-06T07:48:29.337Z,61.03
2023-02-06T07:50:57.892Z,41.93
2023-02-06T07:53:24.831Z,48.65
2023-02-06T07:55:52.511Z,40.93
2023-02-06T07:58:19.428Z,23.77
2023-02-06T08:00:46.697Z,18.57
2023-02-06T08:03:13.963Z,41.13
2023-02-06T08:05:41.259Z,41.53
2023-02-06T08:08:09.893Z,20.33
2023-02-06T08:13:05.598Z,23.30
2023-02-06T08:15:32.868Z,35.37
2023-02-06T08:17:59.910Z,41.43
2023-02-06T08:20:27.145Z,27.63
2023-02-06T08:22:54.707Z,26.93
2023-02-06T08:25:21.992Z,16.40
2023-02-06T08:27:53.111Z,12.43
2023-02-06T08:30:21.004Z,12.80
2023-02-06T08:32:48.048Z,37.20
2023-02-06T08:35:15.373Z,22.53
2023-02-06T08:37:42.304Z,21.10
2023-02-06T08:40:10.262Z,21.53
2023-02-06T08:42:37.189Z,24.63
2023-02-06T08:45:04.768Z,26.13
2023-02-06T08:47:31.692Z,17.03
2023-02-06T08:50:00.099Z,17.83
2023-02-06T08:54:54.963Z,20.20
2023-02-06T08:57:22.205Z,19.00
2023-02-06T08:59:50.039Z,21.53
2023-02-06T09:02:17.040Z,15.47
2023-02-06T09:04:44.309Z,19.73
2023-02-06T09:07:11.260Z,15.67
2023-02-06T09:09:38.603Z,13.73
2023-02-06T09:12:05.676Z,9.63
2023-02-06T09:14:32.918Z,11.83
2023-02-06T09:16:59.848Z,10.33
2023-02-06T09:19:27.311Z,9.73
2023-02-06T09:21:54.248Z,7.73
2023-02-06T09:24:21.497Z,13.87
2023-02-06T09:27:03.754Z,37.17
2023-02-06T09:29:32.078Z,10.53
2023-02-06T09:31:59.868Z,16.50
2023-02-06T09:34:27.660Z,14.50
2023-02-06T09:36:55.150Z,11.90
2023-02-06T09:39:22.485Z,8.63
2023-02-06T09:41:56.760Z,8.90
2023-02-06T09:44:34.529Z,10.97
2023-02-06T09:47:29.050Z,9.53
2023-02-06T09:50:02.803Z,7.30
2023-02-06T09:52:50.098Z,29.93
2023-02-06T09:55:32.294Z,131.07
2023-02-06T09:58:23.351Z,103.73
2023-02-06T10:01:11.839Z,38.77
2023-02-06T10:04:05.702Z,17.08
2023-02-06T10:07:14.475Z,12.57
2023-02-06T10:09:56.357Z,49.67
2023-02-06T10:12:31.328Z,27.03
2023-02-06T10:15:07.478Z,10.60
2023-02-06T10:17:38.146Z,17.13
2023-02-06T10:20:30.639Z,83.87
2023-02-06T10:22:57.722Z,14.43
2023-02-06T10:25:33.507Z,11.13
2023-02-06T10:28:28.296Z,12.73
2023-02-06T10:31:25.923Z,13.50
2023-02-06T10:34:13.160Z,20.75
2023-02-06T10:36:58.955Z,11.30
2023-02-06T10:39:46.096Z,7.30
2023-02-06T10:42:22.796Z,14.00
2023-02-06T10:45:19.739Z,9.03
2023-02-06T10:47:56.459Z,19.10
2023-02-06T10:50:45.049Z,15.00
2023-02-06T10:53:19.719Z,9.25
2023-02-06T10:55:56.214Z,12.70
2023-02-06T10:58:35.213Z,19.00
2023-02-06T11:01:13.893Z,10.80
2023-02-06T11:04:03.441Z,13.33
2023-02-06T11:06:31.315Z,18.30
2023-02-06T11:08:58.376Z,34.30
2023-02-06T11:11:32.123Z,15.03
2023-02-06T11:14:05.546Z,12.37
2023-02-06T11:16:36.162Z,11.80
2023-02-06T11:19:25.468Z,54.97
2023-02-06T11:22:04.574Z,11.90
2023-02-06T11:24:31.767Z,17.10
2023-02-06T11:27:18.697Z,18.77
2023-02-06T11:29:50.996Z,49.00
2023-02-06T11:32:40.842Z,23.50
2023-02-06T11:35:42.985Z,43.67
2023-02-06T11:38:21.858Z,28.63
2023-02-06T11:41:18.544Z,22.13
2023-02-06T11:43:51.045Z,20.13
2023-02-06T11:46:27.015Z,16.53
2023-02-06T11:48:58.624Z,16.40
2023-02-06T11:51:26.651Z,15.30
2023-02-06T11:53:57.344Z,39.10
2023-02-06T11:56:24.959Z,41.60
2023-02-06T11:59:06.772Z,160.40
2023-02-06T12:01:51.928Z,50.67
2023-02-06T12:04:26.343Z,33.87
2023-02-06T12:07:02.365Z,67.10
2023-02-06T12:09:29.655Z,39.10
2023-02-06T12:11:59.366Z,50.23
2023-02-06T12:14:36.362Z,57.90
2023-02-06T12:17:08.617Z,38.87
2023-02-06T12:19:48.845Z,40.43
2023-02-06T12:22:23.858Z,18.40
2023-02-06T12:24:56.632Z,22.97
2023-02-06T12:27:24.283Z,19.07
2023-02-06T12:29:59.818Z,22.63
2023-02-06T12:32:43.853Z,24.77
2023-02-06T12:35:27.989Z,30.17
2023-02-06T12:38:04.977Z,28.27
2023-02-06T12:40:48.287Z,19.50
2023-02-06T12:43:18.094Z,14.73
2023-02-06T12:45:45.256Z,15.40
2023-02-06T12:48:47.299Z,67.30
2023-02-06T12:51:43.796Z,18.47
2023-02-06T12:54:23.423Z,26.17
2023-02-06T12:57:14.580Z,15.27
2023-02-06T13:00:07.624Z,14.73
2023-02-06T13:02:40.838Z,19.00
2023-02-06T13:05:22.290Z,26.80
2023-02-06T13:07:51.145Z,21.90
2023-02-06T13:10:28.105Z,18.25
2023-02-06T13:12:59.754Z,13.60
2023-02-06T13:15:31.348Z,43.67
2023-02-06T13:17:58.882Z,20.17
2023-02-06T13:20:26.793Z,27.37
2023-02-06T13:23:15.708Z,16.85
2023-02-06T13:25:45.281Z,33.92
2023-02-06T13:28:25.766Z,14.33
2023-02-06T13:31:24.076Z,14.57
2023-02-06T13:34:01.261Z,25.08
2023-02-06T13:36:44.053Z,13.30
2023-02-06T13:39:30.222Z,12.50
2023-02-06T13:42:01.155Z,57.60
2023-02-06T13:44:32.254Z,20.50
2023-02-06T13:47:11.817Z,22.30
2023-02-06T13:49:59.964Z,47.33
2023-02-06T13:52:42.510Z,23.40
2023-02-06T13:55:32.998Z,49.43
2023-02-06T13:58:05.660Z,28.30
2023-02-06T14:00:38.365Z,46.07
2023-02-06T14:03:28.589Z,101.17
2023-02-06T14:06:20.796Z,29.40
2023-02-06T14:09:10.313Z,15.17
2023-02-06T14:12:35.735Z,12.17
2023-02-06T14:15:24.632Z,24.97
2023-02-06T14:17:56.917Z,20.43
2023-02-06T14:20:56.712Z,15.63
2023-02-06T14:23:45.626Z,19.70
2023-02-06T14:26:32.045Z,21.45
2023-02-06T14:29:09.356Z,19.83
2023-02-06T14:31:44.369Z,16.30
2023-02-06T14:35:01.270Z,27.97
2023-02-06T14:37:38.289Z,18.53
2023-02-06T14:40:15.470Z,11.87
2023-02-06T14:42:44.991Z,12.37
2023-02-06T14:45:42.189Z,21.17
2023-02-06T14:48:26.056Z,16.30
2023-02-06T14:50:57.298Z,24.73
2023-02-06T14:53:40.144Z,21.60
2023-02-06T14:56:12.470Z,21.77
2023-02-06T14:58:39.407Z,29.67
2023-02-06T15:01:18.932Z,18.00
2023-02-06T15:03:47.811Z,17.77
2023-02-06T15:06:29.540Z,20.53
2023-02-06T15:08:57.020Z,18.63
2023-02-06T15:11:32.539Z,19.17
2023-02-06T15:14:02.916Z,19.93
2023-02-06T15:16:31.029Z,20.97
2023-02-06T15:19:13.256Z,18.57
2023-02-06T15:21:43.091Z,18.40
2023-02-06T15:24:36.227Z,15.80
2023-02-06T15:27:30.914Z,15.03
2023-02-06T15:29:59.426Z,14.37
2023-02-06T15:35:00.663Z,15.37
2023-02-06T15:37:32.686Z,16.73
2023-02-06T15:40:32.413Z,16.37
2023-02-06T15:43:01.857Z,19.63
2023-02-06T15:45:50.139Z,22.23
2023-02-06T15:48:30.553Z,17.83
2023-02-06T15:51:26.596Z,18.73
2023-02-06T15:54:06.438Z,20.93
2023-02-06T15:56:40.830Z,61.50
2023-02-06T15:59:20.453Z,97.00
2023-02-06T16:01:48.701Z,77.13
2023-02-06T16:04:19.877Z,109.07
2023-02-06T16:06:58.879Z,97.87
2023-02-06T16:09:26.847Z,84.23
2023-02-06T16:11:57.043Z,101.33
2023-02-06T16:14:30.874Z,102.60
2023-02-06T16:17:09.973Z,112.27
2023-02-06T16:20:02.784Z,129.27
2023-02-06T16:22:40.225Z,111.67
2023-02-06T16:25:31.209Z,105.33
2023-02-06T16:27:59.275Z,111.33
2023-02-06T16:30:33.165Z,120.50
2023-02-06T16:33:28.238Z,119.30
2023-02-06T16:35:55.446Z,100.67
2023-02-06T16:38:22.361Z,116.03
2023-02-06T16:40:52.817Z,94.87
2023-02-06T16:43:20.312Z,90.73
2023-02-06T16:45:49.180Z,67.10
2023-02-06T16:48:18.172Z,107.32
2023-02-06T16:50:48.357Z,439.03
2023-02-06T16:53:23.016Z,323.23
2023-02-06T16:55:51.046Z,270.50
2023-02-06T16:58:24.174Z,121.65
2023-02-06T17:00:51.459Z,153.33
2023-02-06T17:03:18.904Z,116.97
2023-02-06T17:05:47.607Z,169.70
2023-02-06T17:08:24.552Z,171.55
2023-02-06T17:10:52.226Z,156.50
2023-02-06T17:13:21.893Z,135.67
2023-02-06T17:15:52.334Z,166.00
2023-02-06T17:18:21.449Z,173.73
2023-02-06T17:20:56.338Z,183.63
2023-02-06T17:23:23.867Z,177.57
2023-02-06T17:25:52.157Z,185.43
2023-02-06T17:28:20.563Z,155.60
2023-02-06T17:30:48.996Z,155.73
2023-02-06T17:33:16.094Z,169.77
2023-02-06T17:35:43.693Z,135.13
2023-02-06T17:38:10.809Z,143.33
2023-02-06T17:40:41.000Z,115.57
2023-02-06T17:43:08.254Z,138.03
2023-02-06T17:45:38.931Z,131.37
2023-02-06T17:48:06.868Z,124.97
2023-02-06T17:50:37.025Z,118.28
2023-02-06T17:53:06.022Z,109.20
2023-02-06T17:55:35.320Z,111.67
2023-02-06T17:58:02.247Z,115.10
2023-02-06T18:00:29.632Z,106.73
2023-02-06T18:02:58.179Z,121.40
2023-02-06T18:05:26.295Z,116.57
2023-02-06T18:07:53.483Z,134.68
2023-02-06T18:10:22.869Z,120.40
2023-02-06T18:12:50.352Z,130.00
2023-02-06T18:15:17.963Z,90.63
2023-02-06T18:17:45.114Z,123.60
2023-02-06T18:20:12.794Z,115.17
2023-02-06T18:22:42.602Z,93.47
2023-02-06T18:25:13.047Z,101.00
2023-02-06T18:27:41.461Z,103.63
2023-02-06T18:30:09.936Z,116.40
2023-02-06T18:32:38.267Z,110.57
2023-02-06T18:37:33.115Z,122.05
2023-02-06T18:40:00.391Z,107.40
2023-02-06T18:42:45.802Z,110.63
2023-02-06T18:45:13.052Z,110.43
2023-02-06T18:47:42.397Z,118.30
2023-02-06T18:50:11.240Z,111.90
2023-02-06T18:55:10.737Z,112.70
2023-02-06T18:57:37.914Z,98.90
2023-02-06T19:00:08.228Z,108.10
2023-02-06T19:02:35.454Z,90.70
2023-02-06T19:05:02.839Z,114.28
2023-02-06T19:07:29.801Z,110.17
2023-02-06T19:10:01.581Z,102.13
2023-02-06T19:12:29.485Z,98.83
2023-02-06T19:14:57.690Z,115.10
2023-02-06T19:17:26.038Z,106.47
2023-02-06T19:19:53.980Z,112.07
2023-02-06T19:22:20.962Z,104.80
2023-02-06T19:24:48.510Z,99.43
2023-02-06T19:27:15.700Z,102.37
2023-02-06T19:29:43.100Z,110.65
2023-02-06T19:32:10.136Z,116.80
2023-02-06T19:34:39.922Z,166.83
2023-02-06T19:37:09.228Z,120.17
2023-02-06T19:39:38.196Z,123.13
2023-02-06T19:42:06.918Z,101.83
2023-02-06T19:44:34.240Z,153.50
2023-02-06T19:47:01.764Z,153.20
2023-02-06T19:49:29.671Z,134.82
2023-02-06T19:51:56.829Z,101.55
2023-02-06T19:54:24.022Z,125.40
2023-02-06T19:56:50.967Z,121.17
2023-02-06T19:59:21.975Z,108.57
2023-02-06T20:02:00.964Z,113.20
2023-02-06T20:04:34.648Z,101.00
2023-02-06T20:07:02.645Z,138.23
2023-02-06T20:11:58.000Z,127.78
2023-02-06T20:14:25.644Z,99.53
2023-02-06T20:16:53.023Z,103.90
2023-02-06T20:19:27.000Z,110.53
2023-02-06T20:21:57.674Z,107.17
2023-02-06T20:24:27.853Z,100.60
2023-02-06T20:26:57.871Z,109.80
2023-02-06T20:29:26.800Z,108.40
2023-02-06T20:31:54.775Z,103.77
2023-02-06T20:34:22.243Z,100.50
2023-02-06T20:36:50.588Z,110.73
2023-02-06T20:39:18.544Z,99.17
2023-02-06T20:41:46.027Z,115.18
2023-02-06T20:44:14.031Z,92.30
2023-02-06T20:46:42.596Z,115.68
2023-02-06T20:49:31.159Z,85.03
2023-02-06T20:51:58.514Z,94.50
2023-02-06T20:54:25.989Z,90.35
2023-02-06T20:56:53.277Z,82.27
2023-02-06T20:59:20.965Z,75.75
2023-02-06T21:01:48.429Z,84.17
2023-02-06T21:04:17.389Z,85.78
2023-02-06T21:06:46.581Z,97.83
2023-02-06T21:09:14.055Z,99.23
2023-02-06T21:11:44.329Z,79.80
2023-02-06T21:14:12.863Z,90.57
2023-02-06T21:16:40.429Z,81.43
2023-02-06T21:19:09.898Z,89.38
2023-02-06T21:21:37.888Z,91.60
2023-02-06T21:24:05.717Z,100.75
2023-02-06T21:26:33.471Z,101.00
2023-02-06T21:29:06.136Z,106.70
2023-02-06T21:31:37.839Z,78.53
2023-02-06T21:34:16.512Z,99.13
2023-02-06T21:36:44.086Z,98.07
2023-02-06T21:39:19.890Z,74.18
2023-02-06T21:41:47.950Z,90.17
2023-02-06T21:46:41.966Z,91.27
2023-02-06T21:49:11.622Z,96.70
2023-02-06T21:51:39.069Z,94.60
2023-02-06T21:54:06.683Z,95.10
2023-02-06T21:56:36.494Z,86.70
2023-02-06T21:59:05.375Z,96.03
2023-02-06T22:01:33.697Z,92.57
2023-02-06T22:04:02.550Z,80.00
2023-02-06T22:06:29.949Z,112.63
2023-02-06T22:09:02.736Z,92.40
2023-02-06T22:11:30.464Z,95.23
2023-02-06T22:13:59.804Z,80.90
2023-02-06T22:16:27.189Z,78.10
2023-02-06T22:18:54.976Z,76.30
2023-02-06T22:21:26.252Z,68.03
2023-02-06T22:23:57.077Z,78.63
2023-02-06T22:26:24.386Z,76.20
2023-02-06T22:28:51.713Z,62.20
2023-02-06T22:31:22.260Z,87.27
2023-02-06T22:33:50.359Z,70.17
2023-02-06T22:36:20.627Z,76.78
2023-02-06T22:38:52.318Z,81.77
2023-02-06T22:41:19.361Z,67.27
2023-02-06T22:43:49.367Z,52.67
2023-02-06T22:46:25.090Z,73.30
2023-02-06T22:48:52.823Z,61.30
2023-02-06T22:51:20.634Z,75.13
2023-02-06T22:53:48.284Z,66.93
2023-02-06T22:56:27.040Z,66.63
2023-02-06T22:59:01.219Z,58.63
2023-02-06T23:01:41.379Z,62.67
2023-02-06T23:04:16.692Z,64.40
2023-02-06T23:06:44.768Z,56.93
2023-02-06T23:11:40.457Z,52.43
2023-02-06T23:14:07.904Z,54.63
2023-02-06T23:16:35.735Z,52.33
2023-02-06T23:19:05.706Z,53.80
2023-02-06T23:21:36.674Z,46.37
2023-02-06T23:24:05.556Z,59.77
2023-02-06T23:26:33.005Z,42.40
2023-02-06T23:29:02.413Z,48.05
2023-02-06T23:31:29.564Z,64.03
2023-02-06T23:33:57.037Z,57.45
2023-02-06T23:36:25.566Z,52.80
2023-02-06T23:38:53.695Z,55.07
2023-02-06T23:41:25.908Z,51.45
2023-02-06T23:43:58.924Z,44.80
2023-02-06T23:46:27.932Z,51.17
2023-02-06T23:48:56.032Z,42.63
2023-02-06T23:51:24.039Z,43.38
2023-02-06T23:53:52.436Z,51.10
2023-02-06T23:56:38.238Z,42.13
2023-02-06T23:59:06.803Z,43.87
